Relevés horaires Laegern (Suisse)


Relevés horaires à Laegern - Mardi 21 Août 2018
Heure UTC1 Température [°C] Vent [km/h] Hum. [%] Pres.4 [hPa] Visi. [Km] Nébu. [octa] Préc.5 [mm] Cond.
2m. Res. Ros. Dir.2 Vit. Moy. Raf.3
19:00 23.8 23.8 14.1 SE 0.0 -- -- 55 850 -- -- -- --
18:00 24.7 24.7 12.6 SE 0.0 -- 27.8 47 850(0.1/3h) -- -- -- --
17:00 25.8 25.8 12.2 ESE 0.0 -- -- 43 850 -- -- -- --
16:00 26.5 26.5 12.4 ESE 0.0 -- -- 42 850 -- -- -- --
15:00 25.6 25.6 12.2 NNE 0.0 -- 27.8 43 850(-1.1/3h) -- -- -- --
14:00 25.0 25.0 12.7 NE 0.0 -- -- 46 850 -- -- -- --
13:00 24.2 24.2 13.5 N 0.0 -- -- 51 850 -- -- -- --
12:00 23.2 23.2 13.7 N 0.0 -- 29.6 55 850(-0.5/3h) -- -- -- --
11:00 22.1 22.1 13.8 N 0.0 -- -- 59 850 -- -- -- --
10:00 20.4 20.4 13.8 N 0.0 -- -- 66 850 -- -- -- --
09:00 19.2 19.2 14.0 NNO 0.0 -- 24.1 72 850(0.2/3h) -- -- -- --
08:00 17.6 17.6 13.8 N 0.0 -- -- 78 850 -- -- -- --
07:00 16.7 16.7 13.7 N 0.0 -- -- 82 850 -- -- -- --
06:00 16.3 16.3 13.6 N 0.0 -- 33.3 84 850(0.1/3h) -- -- -- --
05:00 16.8 16.8 13.6 N 0.0 -- -- 81 850 -- -- -- --
04:00 17.3 17.3 13.6 N 0.0 -- -- 79 850 -- -- -- --
03:00 17.8 17.8 13.7 N 0.0 -- 33.3 77 850(-0.4/3h) -- -- -- --
02:00 18.1 18.1 13.7 N 0.0 -- -- 75 850 -- -- -- --
01:00 18.5 18.5 13.7 N 0.0 -- -- 74 850 -- -- -- --
00:00 19.1 19.1 13.5 N 0.0 -- 38.9 70 850(0.2/3h) -- -- -- --

1 Coordinated Universal Time. Actuellement il est 22:00 locale et 20:00 UTC.

2 Le vent souffle depuis la direction indiquée vers la direction oposée.

3 Les rafales max. sont disponible 40 min après l'heure du relevé.

4 Pour les stations d'altitude (plus de 600m) le géopotentiel du niveau le plus proche de la pression obligatoire est indiqué.

5 Les stations disposant d'un diffuseur peuvent indiquer "trace". Cela signifie que des précipitations ont touchés le sol mais que la quantité est inférieure à 0.1 mm.

Récapitulatif de la journée
Température [°C] Vent [km/h] Ensoleillement4 [h] Precipitations totale5 [mm] Pression [Hpa]
Min1 Max.2 Moy.3 Max. Min Max.
16.4 26.8 0 38.9 0 h 0 min 0 850.0 850.0

1 Température minimale relevée entre 18:00 UTC la veille et 18:00 UTC le jour donné.

2 Température maximale relevée entre 06:00 UTC le jour donné et 06:00 UTC le lendemain.

3 Vent moyen de la journée basé sur les relevés horaires.

4 Ensoleillement en heures relevé entre 06:00 UTC la veille et 06:00 UTC le jour donné.

5 Précipitations totales tombées entre 06:00 UTC la jour donné et 06:00 UTC le lendemain.

Graphiques horaires